createdAt,value
2019-04-19T00:04:29.316Z,4.27
2019-04-19T00:10:23.658Z,4.40
2019-04-19T00:27:18.017Z,4.20
2019-04-19T00:30:03.108Z,4.23
2019-04-19T00:32:42.536Z,4.10
2019-04-19T00:35:47.531Z,4.40
2019-04-19T00:44:30.216Z,4.70
2019-04-19T00:46:53.867Z,3.70
2019-04-19T00:49:33.948Z,4.53
2019-04-19T00:52:16.770Z,4.50
2019-04-19T00:55:25.968Z,4.40
2019-04-19T00:58:06.496Z,4.20
2019-04-19T01:01:20.343Z,5.23
2019-04-19T01:06:45.829Z,4.07
2019-04-19T01:09:24.402Z,4.50
2019-04-19T01:12:03.108Z,4.70
2019-04-19T01:14:36.375Z,4.10
2019-04-19T01:17:17.513Z,4.53
2019-04-19T01:19:46.951Z,4.40
2019-04-19T01:22:21.464Z,3.77
2019-04-19T01:24:51.614Z,4.60
2019-04-19T01:27:32.529Z,4.60
2019-04-19T01:30:46.559Z,5.00
2019-04-19T01:36:08.909Z,4.60
2019-04-19T01:38:40.859Z,4.30
2019-04-19T01:41:30.934Z,5.07
2019-04-19T01:49:46.493Z,4.50
2019-04-19T01:55:38.967Z,4.80
2019-04-19T01:58:14.061Z,4.53
2019-04-19T02:00:50.836Z,4.67
2019-04-19T02:03:31.436Z,4.47
2019-04-19T02:06:14.626Z,5.03
2019-04-19T02:08:47.395Z,4.90
2019-04-19T02:12:23.664Z,4.60
2019-04-19T02:14:48.611Z,4.87
2019-04-19T02:17:27.546Z,4.80
2019-04-19T02:20:06.106Z,4.97
2019-04-19T02:22:39.607Z,4.80
2019-04-19T02:25:16.698Z,5.20
2019-04-19T02:27:45.591Z,4.77
2019-04-19T02:30:41.419Z,5.20
2019-04-19T02:33:30.179Z,4.73
2019-04-19T02:39:10.755Z,5.03
2019-04-19T02:41:40.046Z,4.90
2019-04-19T02:53:15.831Z,5.10
2019-04-19T03:01:47.728Z,5.47
2019-04-19T03:10:49.893Z,4.90
2019-04-19T03:13:17.312Z,5.27
2019-04-19T03:18:53.686Z,5.33
2019-04-19T03:21:42.897Z,5.00
2019-04-19T03:25:05.039Z,4.60
2019-04-19T03:27:19.288Z,5.23
2019-04-19T03:29:42.269Z,5.63
2019-04-19T03:35:03.968Z,5.20
2019-04-19T03:37:48.167Z,4.33
2019-04-19T03:43:41.168Z,4.97
2019-04-19T03:52:36.972Z,5.80
2019-04-19T03:56:09.292Z,4.93
2019-04-19T03:58:24.951Z,5.47
2019-04-19T04:00:58.138Z,4.83
2019-04-19T04:03:38.473Z,5.80
2019-04-19T04:06:08.386Z,5.23
2019-04-19T04:11:56.100Z,4.60
2019-04-19T04:14:56.766Z,5.23
2019-04-19T04:20:22.143Z,5.30
2019-04-19T04:23:15.507Z,5.30
2019-04-19T04:25:54.253Z,6.60
2019-04-19T04:28:33.376Z,4.90
2019-04-19T04:34:10.677Z,5.53
2019-04-19T04:37:02.942Z,5.20
2019-04-19T04:39:21.808Z,4.97
2019-04-19T04:42:44.397Z,4.30
2019-04-19T04:48:43.890Z,4.97
2019-04-19T04:57:37.867Z,4.30
2019-04-19T05:00:22.250Z,5.10
2019-04-19T05:03:48.365Z,4.87
2019-04-19T05:06:25.471Z,5.10
2019-04-19T05:12:10.598Z,4.40
2019-04-19T05:15:34.836Z,5.10
2019-04-19T05:24:27.684Z,4.60
2019-04-19T05:27:46.570Z,4.10
2019-04-19T05:30:11.617Z,4.50
2019-04-19T05:45:57.980Z,4.77
2019-04-19T05:48:08.524Z,4.27
2019-04-19T05:51:14.428Z,4.47
2019-04-19T05:53:34.282Z,4.50
2019-04-19T05:56:04.858Z,4.43
2019-04-19T05:58:52.170Z,3.93
2019-04-19T06:01:31.690Z,3.97
2019-04-19T06:07:28.103Z,4.33
2019-04-19T06:09:45.589Z,4.27
2019-04-19T06:12:23.593Z,4.33
2019-04-19T06:15:55.724Z,4.27
2019-04-19T06:21:27.761Z,4.10
2019-04-19T06:24:22.207Z,3.27
2019-04-19T06:27:08.633Z,3.73
2019-04-19T06:29:45.049Z,2.80
2019-04-19T06:32:15.505Z,3.23
2019-04-19T06:35:23.963Z,2.93
2019-04-19T06:43:41.065Z,2.83
2019-04-19T06:46:23.086Z,3.00
2019-04-19T06:49:08.384Z,2.73
2019-04-19T06:51:45.693Z,3.07
2019-04-19T06:54:14.423Z,3.00
2019-04-19T06:56:58.415Z,2.80
2019-04-19T07:00:11.544Z,2.80
2019-04-19T07:02:24.270Z,2.60
2019-04-19T07:06:09.229Z,2.30
2019-04-19T07:12:05.338Z,2.42
2019-04-19T07:17:59.883Z,2.62
2019-04-19T07:21:25.887Z,2.20
2019-04-19T07:26:52.507Z,2.65
2019-04-19T07:29:25.646Z,2.62
2019-04-19T07:31:53.568Z,2.25
2019-04-19T07:34:58.341Z,2.40
2019-04-19T07:37:31.261Z,2.45
2019-04-19T07:40:16.048Z,2.45
2019-04-19T07:42:56.469Z,2.00
2019-04-19T07:49:02.124Z,1.75
2019-04-19T07:51:34.219Z,2.00
2019-04-19T07:54:13.555Z,2.10
2019-04-19T07:56:55.723Z,2.00
2019-04-19T08:03:39.253Z,1.62
2019-04-19T08:05:59.354Z,1.50
2019-04-19T08:14:38.340Z,1.50
2019-04-19T08:29:17.159Z,2.00
2019-04-19T08:32:19.465Z,2.15
2019-04-19T08:34:53.700Z,1.85
2019-04-19T08:37:22.611Z,1.87
2019-04-19T08:46:13.599Z,1.70
2019-04-19T08:49:02.886Z,1.70
2019-04-19T08:51:55.949Z,1.70
2019-04-19T08:54:53.666Z,1.40
2019-04-19T08:57:10.538Z,1.57
2019-04-19T08:59:59.494Z,1.60
2019-04-19T09:02:44.164Z,1.87
2019-04-19T09:05:15.630Z,1.90
2019-04-19T09:08:05.668Z,1.70
2019-04-19T09:10:41.523Z,1.95
2019-04-19T09:13:22.698Z,1.72
2019-04-19T09:27:26.201Z,2.05
2019-04-19T09:29:55.769Z,1.60
2019-04-19T09:32:20.606Z,2.03
2019-04-19T09:34:55.903Z,2.30
2019-04-19T09:37:58.280Z,2.10
2019-04-19T09:40:42.880Z,2.10
2019-04-19T09:43:19.959Z,2.10
2019-04-19T09:45:34.064Z,2.27
2019-04-19T09:48:01.473Z,2.40
2019-04-19T09:50:46.056Z,2.40
2019-04-19T09:53:29.184Z,2.33
2019-04-19T09:55:49.835Z,2.53
2019-04-19T09:58:16.960Z,2.40
2019-04-19T10:00:28.940Z,2.50
2019-04-19T10:03:02.728Z,2.67
2019-04-19T10:05:25.027Z,3.00
2019-04-19T10:07:52.749Z,2.70
2019-04-19T10:10:20.764Z,3.40
2019-04-19T10:12:49.677Z,2.40
2019-04-19T10:15:28.040Z,2.97
2019-04-19T10:17:56.413Z,2.80
2019-04-19T10:20:33.232Z,2.73
2019-04-19T10:23:02.526Z,2.60
2019-04-19T10:25:33.279Z,2.73
2019-04-19T10:28:01.365Z,2.93
2019-04-19T10:30:36.402Z,2.50
2019-04-19T10:33:04.558Z,3.27
2019-04-19T10:35:31.987Z,2.43
2019-04-19T10:37:59.754Z,2.27
2019-04-19T10:40:27.864Z,2.40
2019-04-19T10:42:55.031Z,2.83
2019-04-19T10:45:23.881Z,3.10
2019-04-19T10:47:51.758Z,2.83
2019-04-19T10:50:32.279Z,2.90
2019-04-19T10:52:52.476Z,2.70
2019-04-19T10:55:22.415Z,2.80
2019-04-19T10:57:49.784Z,2.80
2019-04-19T11:00:17.848Z,2.57
2019-04-19T11:02:46.269Z,2.63
2019-04-19T11:05:14.580Z,2.60
2019-04-19T11:07:43.487Z,2.53
2019-04-19T11:10:11.869Z,2.40
2019-04-19T11:12:40.648Z,2.43
2019-04-19T11:15:08.825Z,2.80
2019-04-19T11:17:36.064Z,2.70
2019-04-19T11:20:20.125Z,2.97
2019-04-19T11:22:35.491Z,2.70
2019-04-19T11:25:03.929Z,2.90
2019-04-19T11:27:31.204Z,2.77
2019-04-19T11:30:01.299Z,3.07
2019-04-19T11:32:54.883Z,2.70
2019-04-19T11:35:23.667Z,2.70
2019-04-19T11:37:51.350Z,2.97
2019-04-19T11:40:19.554Z,2.73
2019-04-19T11:42:46.854Z,2.70
2019-04-19T11:45:15.666Z,3.23
2019-04-19T11:47:43.063Z,2.27
2019-04-19T11:50:13.790Z,2.93
2019-04-19T11:52:46.109Z,2.63
2019-04-19T11:55:14.706Z,2.30
2019-04-19T11:57:52.549Z,3.30
2019-04-19T12:00:32.069Z,2.50
2019-04-19T12:03:00.220Z,2.33
2019-04-19T12:05:30.778Z,3.00
2019-04-19T12:07:56.924Z,2.87
2019-04-19T12:10:24.536Z,3.10
2019-04-19T12:12:53.024Z,2.50
2019-04-19T12:15:22.219Z,2.67
2019-04-19T12:17:50.694Z,2.43
2019-04-19T12:20:19.263Z,2.23
2019-04-19T12:22:46.667Z,2.70
2019-04-19T12:25:13.873Z,2.50
2019-04-19T12:27:41.659Z,2.60
2019-04-19T12:30:09.869Z,2.70
2019-04-19T12:32:49.623Z,2.30
2019-04-19T12:35:16.963Z,2.93
2019-04-19T12:37:45.026Z,2.90
2019-04-19T12:40:12.895Z,2.70
2019-04-19T12:42:40.421Z,2.50
2019-04-19T12:45:10.216Z,2.87
2019-04-19T12:47:38.301Z,2.70
2019-04-19T12:50:09.083Z,2.50
2019-04-19T12:52:35.950Z,2.10
2019-04-19T12:55:03.955Z,2.50
2019-04-19T12:57:36.177Z,2.20
2019-04-19T13:00:05.622Z,2.63
2019-04-19T13:02:45.733Z,2.70
2019-04-19T13:05:16.277Z,3.50
2019-04-19T13:07:43.569Z,2.70
2019-04-19T13:10:11.146Z,2.63
2019-04-19T13:12:39.068Z,2.63
2019-04-19T13:15:09.395Z,2.30
2019-04-19T13:17:38.097Z,2.63
2019-04-19T13:20:12.801Z,2.57
2019-04-19T13:22:34.963Z,2.40
2019-04-19T13:25:03.533Z,2.60
2019-04-19T13:27:41.850Z,2.60
2019-04-19T13:30:10.579Z,2.27
2019-04-19T13:32:29.623Z,2.60
2019-04-19T13:34:57.134Z,2.63
2019-04-19T13:37:35.036Z,2.60
2019-04-19T13:40:28.304Z,2.30
2019-04-19T13:42:58.519Z,2.50
2019-04-19T13:45:29.386Z,2.63
2019-04-19T13:47:54.563Z,3.10
2019-04-19T13:50:30.319Z,2.53
2019-04-19T13:52:51.314Z,2.60
2019-04-19T13:55:19.071Z,2.50
2019-04-19T13:57:46.286Z,2.50
2019-04-19T14:00:20.399Z,2.30
2019-04-19T14:02:47.881Z,2.23
2019-04-19T14:05:15.713Z,1.90
2019-04-19T14:07:43.237Z,2.00
2019-04-19T14:10:10.571Z,2.53
2019-04-19T14:12:38.901Z,2.40
2019-04-19T14:15:06.836Z,2.57
2019-04-19T14:17:35.908Z,2.27
2019-04-19T14:20:05.000Z,2.40
2019-04-19T14:22:33.741Z,2.63
2019-04-19T14:25:01.499Z,1.90
2019-04-19T14:27:29.166Z,2.07
2019-04-19T14:29:57.278Z,2.60
2019-04-19T14:32:25.283Z,3.07
2019-04-19T14:34:53.992Z,1.90
2019-04-19T14:37:22.443Z,2.50
2019-04-19T14:39:49.760Z,2.20
2019-04-19T14:42:17.387Z,2.00
2019-04-19T14:44:45.378Z,2.17
2019-04-19T14:47:13.146Z,1.90
2019-04-19T14:49:40.795Z,2.00
2019-04-19T14:52:08.155Z,2.00
2019-04-19T14:54:35.822Z,2.57
2019-04-19T14:57:03.230Z,1.73
2019-04-19T14:59:31.539Z,2.07
2019-04-19T15:02:04.724Z,2.67
2019-04-19T15:04:42.784Z,2.70
2019-04-19T15:07:10.258Z,2.30
2019-04-19T15:09:37.558Z,2.07
2019-04-19T15:12:04.944Z,2.13
2019-04-19T15:14:32.553Z,2.10
2019-04-19T15:17:00.536Z,1.87
2019-04-19T15:19:29.405Z,2.23
2019-04-19T15:21:56.673Z,2.00
2019-04-19T15:24:23.966Z,2.00
2019-04-19T15:26:52.450Z,1.80
2019-04-19T15:29:20.814Z,1.70
2019-04-19T15:31:48.639Z,1.67
2019-04-19T15:34:16.051Z,2.00
2019-04-19T15:36:43.868Z,2.13
2019-04-19T15:39:11.228Z,1.93
2019-04-19T15:41:40.119Z,1.87
2019-04-19T15:44:08.434Z,1.70
2019-04-19T15:46:36.026Z,1.93
2019-04-19T15:49:03.779Z,2.20
2019-04-19T15:51:35.706Z,1.60
2019-04-19T15:54:00.399Z,2.00
2019-04-19T15:56:27.629Z,2.20
2019-04-19T15:58:54.952Z,2.47
2019-04-19T16:01:31.202Z,2.00
2019-04-19T16:03:59.935Z,1.80
2019-04-19T16:06:47.967Z,2.43
2019-04-19T16:10:00.280Z,1.47
2019-04-19T16:12:26.989Z,1.77
2019-04-19T16:14:54.142Z,2.20
2019-04-19T16:17:21.381Z,2.10
2019-04-19T16:19:49.105Z,2.27
2019-04-19T16:22:16.388Z,2.03
2019-04-19T16:24:43.613Z,2.00
2019-04-19T16:27:11.238Z,1.80
2019-04-19T16:29:44.932Z,2.20
2019-04-19T16:32:09.097Z,2.00
2019-04-19T16:34:36.459Z,2.20
2019-04-19T16:37:04.638Z,2.00
2019-04-19T16:39:33.196Z,1.70
2019-04-19T16:42:00.949Z,3.10
2019-04-19T16:44:29.721Z,2.00
2019-04-19T16:46:57.250Z,2.00
2019-04-19T16:49:24.642Z,2.10
2019-04-19T16:51:56.161Z,2.00
2019-04-19T16:54:20.869Z,1.90
2019-04-19T16:56:48.132Z,1.70
2019-04-19T16:59:16.191Z,1.97
2019-04-19T17:01:43.495Z,2.13
2019-04-19T17:04:11.296Z,2.03
2019-04-19T17:06:38.677Z,2.13
2019-04-19T17:09:08.878Z,2.10
2019-04-19T17:11:36.146Z,1.90
2019-04-19T17:14:04.861Z,2.20
2019-04-19T17:17:04.591Z,2.30
2019-04-19T17:19:52.855Z,2.20
2019-04-19T17:22:26.315Z,1.67
2019-04-19T17:24:52.660Z,1.90
2019-04-19T17:27:27.226Z,1.90
2019-04-19T17:29:49.998Z,2.30
2019-04-19T17:32:18.451Z,2.60
2019-04-19T17:34:46.102Z,2.50
2019-04-19T17:37:14.084Z,2.20
2019-04-19T17:39:42.490Z,1.93
2019-04-19T17:42:10.565Z,2.07
2019-04-19T17:44:39.667Z,1.90
2019-04-19T17:47:09.909Z,2.00
2019-04-19T17:49:40.500Z,2.10
2019-04-19T17:52:15.102Z,1.80
2019-04-19T17:54:52.442Z,2.40
2019-04-19T17:57:07.243Z,2.20
2019-04-19T17:59:34.713Z,2.23
2019-04-19T18:02:03.232Z,2.23
2019-04-19T18:04:30.590Z,2.30
2019-04-19T18:07:00.980Z,2.60
2019-04-19T18:09:26.946Z,2.97
2019-04-19T18:11:55.536Z,2.77
2019-04-19T18:14:23.443Z,2.53
2019-04-19T18:16:50.912Z,2.27
2019-04-19T18:19:25.726Z,2.10
2019-04-19T18:21:48.100Z,2.30
2019-04-19T18:24:20.641Z,2.20
2019-04-19T18:26:44.662Z,2.40
2019-04-19T18:29:15.041Z,2.57
2019-04-19T18:31:48.903Z,2.77
2019-04-19T18:34:13.506Z,2.50
2019-04-19T18:36:49.725Z,3.43
2019-04-19T18:39:11.953Z,2.60
2019-04-19T18:41:41.109Z,2.70
2019-04-19T18:44:17.188Z,2.70
2019-04-19T18:46:38.595Z,2.43
2019-04-19T18:49:07.569Z,3.27
2019-04-19T18:51:41.487Z,2.90
2019-04-19T18:54:15.646Z,2.90
2019-04-19T18:56:34.530Z,3.47
2019-04-19T18:59:10.706Z,3.60
2019-04-19T19:01:36.182Z,2.80
2019-04-19T19:04:00.227Z,2.90
2019-04-19T19:06:35.082Z,3.20
2019-04-19T19:09:04.449Z,3.60
2019-04-19T19:11:28.344Z,3.30
2019-04-19T19:13:55.753Z,3.80
2019-04-19T19:16:28.470Z,3.77
2019-04-19T19:18:54.658Z,4.43
2019-04-19T19:21:22.044Z,3.87
2019-04-19T19:24:15.632Z,4.00
2019-04-19T19:26:27.421Z,3.50
2019-04-19T19:28:49.870Z,4.03
2019-04-19T19:31:18.781Z,3.60
2019-04-19T19:33:49.222Z,3.73
2019-04-19T19:36:23.406Z,4.00
2019-04-19T19:38:57.132Z,4.43
2019-04-19T19:41:36.619Z,4.23
2019-04-19T19:44:01.178Z,4.50
2019-04-19T19:46:40.207Z,4.87
2019-04-19T19:49:27.176Z,4.17
2019-04-19T19:51:30.734Z,4.43
2019-04-19T19:56:40.229Z,3.90
2019-04-19T19:58:51.178Z,5.00
2019-04-19T20:01:26.739Z,4.90
2019-04-19T20:03:47.510Z,4.73
2019-04-19T20:06:17.448Z,4.30
2019-04-19T20:08:44.000Z,4.70
2019-04-19T20:11:17.557Z,4.40
2019-04-19T20:13:42.543Z,4.50
2019-04-19T20:16:19.051Z,4.70
2019-04-19T20:18:43.326Z,4.60
2019-04-19T20:21:10.909Z,4.00
2019-04-19T20:23:54.145Z,4.80
2019-04-19T20:26:14.387Z,3.90
2019-04-19T20:28:37.846Z,4.67
2019-04-19T20:31:05.993Z,4.60
2019-04-19T20:33:44.380Z,4.57
2019-04-19T20:36:07.005Z,4.60
2019-04-19T20:38:40.557Z,5.60
2019-04-19T20:41:05.619Z,4.87
2019-04-19T20:43:46.200Z,4.50
2019-04-19T20:46:06.623Z,4.10
2019-04-19T20:48:31.638Z,4.10
2019-04-19T20:51:08.633Z,4.17
2019-04-19T20:53:39.106Z,4.53
2019-04-19T20:56:35.570Z,4.57
2019-04-19T20:58:47.872Z,4.40
2019-04-19T21:01:10.442Z,4.00
2019-04-19T21:03:39.646Z,4.57
2019-04-19T21:06:06.965Z,4.20
2019-04-19T21:08:42.370Z,4.37
2019-04-19T21:11:07.302Z,3.80
2019-04-19T21:13:33.433Z,4.50
2019-04-19T21:16:00.845Z,4.47
2019-04-19T21:18:29.500Z,4.20
2019-04-19T21:21:04.676Z,4.50
2019-04-19T21:23:29.466Z,4.00
2019-04-19T21:25:59.055Z,4.17
2019-04-19T21:28:35.555Z,4.67
2019-04-19T21:30:57.843Z,4.50
2019-04-19T21:33:24.633Z,4.90
2019-04-19T21:36:00.088Z,4.20
2019-04-19T21:38:24.746Z,3.40
2019-04-19T21:40:50.555Z,4.20
2019-04-19T21:46:34.706Z,4.23
2019-04-19T21:49:13.801Z,4.27
2019-04-19T21:54:24.178Z,3.90
2019-04-19T21:56:58.502Z,4.20
2019-04-19T21:59:38.618Z,3.40
2019-04-19T22:02:49.981Z,4.03
2019-04-19T22:05:29.305Z,4.20
2019-04-19T22:08:00.404Z,5.57
2019-04-19T22:10:39.997Z,4.30
2019-04-19T22:13:10.526Z,3.80
2019-04-19T22:15:43.827Z,4.20
2019-04-19T22:18:32.343Z,4.30
2019-04-19T22:21:06.791Z,4.07
2019-04-19T22:24:02.737Z,4.77
2019-04-19T22:26:37.424Z,5.30
2019-04-19T22:29:21.834Z,4.97
2019-04-19T22:35:22.688Z,5.07
2019-04-19T22:37:56.701Z,4.80
2019-04-19T22:40:34.532Z,4.63
2019-04-19T22:43:51.006Z,4.20
2019-04-19T22:46:25.662Z,4.73
2019-04-19T22:49:05.591Z,4.07
2019-04-19T22:51:56.463Z,4.57
2019-04-19T22:54:30.806Z,4.80
2019-04-19T22:57:07.251Z,4.90
2019-04-19T22:59:51.989Z,4.87
2019-04-19T23:02:49.796Z,4.13
2019-04-19T23:08:29.532Z,4.30
2019-04-19T23:10:59.021Z,4.80
2019-04-19T23:16:34.920Z,4.80
2019-04-19T23:19:19.574Z,4.13
2019-04-19T23:25:00.044Z,4.97
2019-04-19T23:27:49.640Z,4.80
2019-04-19T23:30:28.275Z,4.50
2019-04-19T23:32:54.345Z,4.70
2019-04-19T23:35:31.428Z,4.80
2019-04-19T23:37:51.480Z,4.80
2019-04-19T23:40:23.649Z,4.80
2019-04-19T23:42:50.791Z,5.13
2019-04-19T23:45:18.807Z,4.50
2019-04-19T23:47:49.874Z,4.87
2019-04-19T23:50:28.154Z,4.33
2019-04-19T23:56:45.592Z,5.20
